Farlington, KS (66734)

10:49 PM CST on February 13, 2016 (GMT -0600)
Downtown | | Change Station
CLOSE
Current Station
Personal Weather Station
Location: Girard, KS
Elevation: 1001 ft
Nearby Weather Stations

Elev 1001 ft 37.51 °N, 94.84 °W | Updated 1 second ago

Overcast
Overcast
33.6 °F
Feels Like 34 °F
N
0.4
Wind Variable Wind from SW
Gusts 2.5 mph

Today
High -- | Low -- °F
--% Chance of Precip.
Yesterday
High -- | Low -- °F
Precip. -- in
Pressure 30.16 in
Visibility 10.0 miles
Clouds Overcast 5000 ft
Windchill 34 °F
Dew Point 10 °F
Humidity 36%
Rainfall 0.00 in
Snow Depth Not available.
7:11 AM 5:56 PM
Waxing Crescent, 37% visible
METAR KPTS 140435Z AUTO 12008KT 10SM OVC050 02/M11 A3016 RMK AO2 T00201108
Pressure 30.16 in
Visibility 10.0 miles
Clouds Overcast 5000 ft
Windchill 34 °F
Dew Point 10 °F
Humidity 36%
Rainfall 0.00 in
Snow Depth Not available.
7:11 AM 5:56 PM
Waxing Crescent, 37% visible
METAR KPTS 140435Z AUTO 12008KT 10SM OVC050 02/M11 A3016 RMK AO2 T00201108

10-Day Weather Forecast

Almanac

Astronomy

Feb. 13, 2016 Rise Set
Actual Time
Civil Twilight
Nautical Twilight
Astronomical Twilight
Moon
Length of Visible Light
Length of Day
Tomorrow will be .
, % of the Moon is Illuminated

Today's Extremes

State Highs State Lows

Community

WunderPhotos

Upload Photos

1,892,746 photos uploaded!

WunderBlog® & News

Nearby

Air Quality

  Air Quality AQ Index Pollutant
Not available.

Snow Depth

Station Depth Elevation

Earthquake Activity

City Distance Mag. Time & Date
Minimum magnitude displayed is 2.5.

Coastal Water Temperatures

Place Temperature

Stations

Nearby Weather Stations

Station Location Temp. Windchill Dew Point Humidity Wind Precip. Elev Updated Type
                   

Watches & Warnings

There are currently no watches in effect.